Time;durP1;ratioP1;P1;durP2;ratioP2;P2;SDS_P1;SDS_P2;PMS_P1;PMS_P2;Temp;Humidity;BMP_temperature;BMP_pressure;BME280_temperature;BME280_humidity;BME280_pressure;Samples;Min_cycle;Max_cycle;Signal;HPM_P1;HPM_P2
2021/04/18 00:02:14;;;;;;;12.20;8.05;;;7.40;99.90;;;;;;5078707;28;20257;-61
2021/04/18 00:04:43;;;;;;;9.82;5.35;;;7.50;99.90;;;;;;5079470;28;20257;-62
2021/04/18 00:07:10;;;;;;;10.60;7.07;;;7.50;99.90;;;;;;5077047;28;20276;-62
2021/04/18 00:09:37;;;;;;;9.10;4.68;;;7.40;99.90;;;;;;5083508;28;20515;-62
2021/04/18 00:12:04;;;;;;;7.80;6.75;;;7.40;99.90;;;;;;5086758;28;20252;-61
2021/04/18 00:14:31;;;;;;;8.57;7.28;;;7.30;99.90;;;;;;5078363;28;20206;-61
2021/04/18 00:16:57;;;;;;;9.52;7.80;;;7.50;99.90;;;;;;5068792;28;20444;-61
2021/04/18 00:19:24;;;;;;;8.98;7.65;;;7.60;99.90;;;;;;5059010;28;20207;-61
2021/04/18 00:21:51;;;;;;;8.52;7.72;;;7.70;99.90;;;;;;5069928;28;20235;-62
2021/04/18 00:24:17;;;;;;;10.38;5.93;;;7.70;99.90;;;;;;5073188;28;20206;-63
2021/04/18 00:26:43;;;;;;;11.82;9.18;;;7.70;99.90;;;;;;5076773;28;20207;-62
2021/04/18 00:29:10;;;;;;;7.10;6.43;;;7.60;99.90;;;;;;5067072;28;20211;-61
2021/04/18 00:31:36;;;;;;;9.63;8.68;;;7.50;99.90;;;;;;5086076;28;20206;-62
2021/04/18 00:34:03;;;;;;;9.65;7.70;;;7.50;99.90;;;;;;5076909;28;20237;-62
2021/04/18 00:36:31;;;;;;;9.30;6.57;;;7.50;99.90;;;;;;5069302;28;20230;-61
2021/04/18 00:38:58;;;;;;;8.65;7.07;;;7.50;99.90;;;;;;5078776;28;20241;-61
2021/04/18 00:41:25;;;;;;;10.77;8.30;;;7.30;99.90;;;;;;5076816;28;20238;-61
2021/04/18 00:43:52;;;;;;;9.65;7.40;;;7.50;99.90;;;;;;5064231;28;20207;-62
2021/04/18 00:46:18;;;;;;;8.07;6.32;;;7.60;99.90;;;;;;5076884;28;20206;-61
2021/04/18 00:48:45;;;;;;;6.32;5.53;;;7.80;99.90;;;;;;5076627;28;20217;-61
2021/04/18 00:51:15;;;;;;;7.55;6.07;;;8.00;99.90;;;;;;5076805;28;20242;-61
2021/04/18 00:53:42;;;;;;;8.80;7.03;;;8.20;99.90;;;;;;5077795;28;20206;-61
2021/04/18 00:56:10;;;;;;;11.60;8.32;;;8.10;99.90;;;;;;5067664;28;20223;-61
2021/04/18 00:58:38;;;;;;;9.68;7.07;;;8.30;99.90;;;;;;5075167;28;20209;-61
2021/04/18 01:01:06;;;;;;;8.15;7.13;;;8.20;99.90;;;;;;5077588;28;20206;-60
2021/04/18 01:03:33;;;;;;;9.77;5.75;;;8.10;99.90;;;;;;5077586;28;20234;-61
2021/04/18 01:06:00;;;;;;;11.98;7.22;;;8.10;99.90;;;;;;5078478;28;20199;-61
2021/04/18 01:08:27;;;;;;;16.13;8.90;;;8.00;99.90;;;;;;5077732;28;20215;-60
2021/04/18 01:10:54;;;;;;;8.25;7.13;;;8.00;99.90;;;;;;5091530;28;20213;-60
2021/04/18 01:13:20;;;;;;;7.72;5.85;;;8.10;99.90;;;;;;5086697;28;20210;-60
2021/04/18 01:15:47;;;;;;;7.72;6.35;;;8.10;99.90;;;;;;5069495;28;20532;-61
2021/04/18 01:18:13;;;;;;;5.53;4.60;;;8.10;99.90;;;;;;5081827;28;20233;-62
2021/04/18 01:20:40;;;;;;;6.20;4.68;;;8.30;99.90;;;;;;5084697;28;20217;-61
2021/04/18 01:23:07;;;;;;;5.50;5.03;;;8.10;99.90;;;;;;5077240;28;20230;-61
2021/04/18 01:25:38;;;;;;;5.80;4.65;;;8.00;99.90;;;;;;5077275;28;20777;-61
2021/04/18 01:28:05;;;;;;;6.72;4.88;;;7.90;99.90;;;;;;5089592;28;20520;-61
2021/04/18 01:30:32;;;;;;;7.32;3.75;;;8.00;99.90;;;;;;5077242;28;20256;-61
2021/04/18 01:33:01;;;;;;;6.47;5.15;;;8.00;99.90;;;;;;5077669;28;20455;-61
2021/04/18 01:35:28;;;;;;;7.05;6.20;;;8.00;99.90;;;;;;5076946;28;20501;-61
2021/04/18 01:37:55;;;;;;;4.60;3.70;;;7.80;99.90;;;;;;5077373;28;20256;-62
2021/04/18 01:40:23;;;;;;;8.23;3.65;;;7.80;99.90;;;;;;5077238;28;20222;-62
2021/04/18 01:42:50;;;;;;;5.22;4.85;;;7.70;99.90;;;;;;5077613;28;20234;-60
2021/04/18 01:45:18;;;;;;;7.10;4.95;;;7.80;99.90;;;;;;5076811;28;20202;-60
2021/04/18 01:47:46;;;;;;;10.23;5.38;;;7.80;99.90;;;;;;5075277;28;20256;-62
2021/04/18 01:50:17;;;;;;;4.90;4.50;;;7.80;99.90;;;;;;5077233;28;20249;-61
2021/04/18 01:52:44;;;;;;;5.70;4.82;;;7.70;99.90;;;;;;5073595;28;20203;-61
2021/04/18 01:55:12;;;;;;;4.70;4.30;;;7.80;99.90;;;;;;5078606;28;20210;-61
2021/04/18 01:57:38;;;;;;;5.35;4.90;;;7.90;99.90;;;;;;5077878;28;20210;-61
2021/04/18 02:00:07;;;;;;;8.10;5.50;;;8.00;99.90;;;;;;5077236;28;20204;-61
2021/04/18 02:02:34;;;;;;;4.32;3.78;;;8.10;99.90;;;;;;5063299;28;20230;-61
2021/04/18 02:05:01;;;;;;;5.57;5.05;;;8.00;99.90;;;;;;5076537;28;20273;-61
2021/04/18 02:07:28;;;;;;;5.60;4.05;;;8.10;99.90;;;;;;5077407;28;20195;-62
2021/04/18 02:09:54;;;;;;;4.88;4.40;;;8.20;99.90;;;;;;5077873;28;20203;-60
2021/04/18 02:12:21;;;;;;;7.03;5.68;;;8.30;99.90;;;;;;5076180;28;20249;-61
2021/04/18 02:14:47;;;;;;;3.08;2.85;;;8.40;99.90;;;;;;5077205;28;20257;-61
2021/04/18 02:17:14;;;;;;;6.13;4.20;;;8.30;99.90;;;;;;5077059;28;20736;-61
2021/04/18 02:19:40;;;;;;;4.95;3.47;;;8.10;99.90;;;;;;5090399;28;20211;-61
2021/04/18 02:22:07;;;;;;;5.65;4.25;;;8.00;99.90;;;;;;5077099;28;20241;-61
2021/04/18 02:24:34;;;;;;;5.82;5.43;;;7.90;99.90;;;;;;5076925;28;20206;-61
2021/04/18 02:27:00;;;;;;;5.80;3.70;;;7.90;99.90;;;;;;5077122;28;20572;-61
2021/04/18 02:29:27;;;;;;;4.75;4.28;;;8.10;99.90;;;;;;5068561;28;20225;-61
2021/04/18 02:31:55;;;;;;;4.43;4.03;;;8.00;99.90;;;;;;5077007;28;20424;-61
2021/04/18 02:34:21;;;;;;;6.10;5.50;;;7.90;99.90;;;;;;5076207;28;20245;-60
2021/04/18 02:36:48;;;;;;;3.55;2.90;;;7.90;99.90;;;;;;5076877;28;20207;-61
2021/04/18 02:39:15;;;;;;;6.30;5.75;;;8.10;99.90;;;;;;5075786;28;20534;-62
2021/04/18 02:41:41;;;;;;;8.82;6.03;;;8.00;99.90;;;;;;5076024;28;20211;-61
2021/04/18 02:44:08;;;;;;;7.07;5.85;;;7.60;99.90;;;;;;5076909;28;20206;-61
2021/04/18 02:46:35;;;;;;;7.45;3.70;;;7.60;99.90;;;;;;5075620;28;20207;-60
2021/04/18 02:49:05;;;;;;;4.50;4.10;;;7.60;99.90;;;;;;5076579;28;20606;-60
2021/04/18 02:51:31;;;;;;;6.38;3.00;;;7.80;99.90;;;;;;5074597;28;20239;-61
2021/04/18 02:54:00;;;;;;;5.55;4.15;;;7.60;99.90;;;;;;5076931;28;20214;-60
2021/04/18 02:56:27;;;;;;;10.18;4.72;;;7.40;99.90;;;;;;5075637;28;20520;-62
2021/04/18 02:58:54;;;;;;;6.03;5.15;;;7.50;99.90;;;;;;5064031;28;20207;-63
2021/04/18 03:01:21;;;;;;;5.32;3.83;;;7.50;99.90;;;;;;5076349;28;20201;-61
2021/04/18 03:03:48;;;;;;;2.35;2.05;;;7.60;99.90;;;;;;5063519;28;20551;-62
2021/04/18 03:06:15;;;;;;;3.97;3.17;;;7.30;99.90;;;;;;5079966;28;20233;-61
2021/04/18 03:08:42;;;;;;;3.05;2.80;;;7.20;99.90;;;;;;5079722;28;20207;-62
2021/04/18 03:11:10;;;;;;;2.88;2.67;;;7.30;99.90;;;;;;5079815;28;20207;-61
2021/04/18 03:13:37;;;;;;;5.65;5.15;;;7.30;99.90;;;;;;5079781;28;20249;-60
2021/04/18 03:16:06;;;;;;;4.50;4.07;;;7.40;99.90;;;;;;5079842;28;20223;-61
2021/04/18 03:18:32;;;;;;;4.45;3.17;;;7.30;99.90;;;;;;5079476;28;20207;-61
2021/04/18 03:20:59;;;;;;;3.90;3.60;;;7.50;99.90;;;;;;5073746;28;20265;-61
2021/04/18 03:23:25;;;;;;;4.47;3.80;;;7.50;99.90;;;;;;5072211;28;20430;-61
2021/04/18 03:25:52;;;;;;;7.47;5.45;;;7.40;99.90;;;;;;5079231;28;20241;-61
2021/04/18 03:28:19;;;;;;;6.07;4.40;;;7.40;99.90;;;;;;5079324;28;20527;-60
2021/04/18 03:30:46;;;;;;;8.40;4.47;;;7.60;99.90;;;;;;5079385;28;20567;-60
2021/04/18 03:33:12;;;;;;;6.53;4.57;;;7.60;99.90;;;;;;5078416;28;20255;-61
2021/04/18 03:35:39;;;;;;;8.77;7.00;;;7.70;99.90;;;;;;5079448;28;20202;-61
2021/04/18 03:38:06;;;;;;;6.90;5.95;;;7.60;99.90;;;;;;5080146;28;20407;-61
2021/04/18 03:40:32;;;;;;;3.88;3.50;;;7.50;99.90;;;;;;5079629;28;20689;-60
2021/04/18 03:42:59;;;;;;;2.90;2.45;;;7.40;99.90;;;;;;5078640;28;20230;-60
2021/04/18 03:45:26;;;;;;;5.25;3.85;;;7.30;99.90;;;;;;5079276;28;20214;-61
2021/04/18 03:47:52;;;;;;;6.97;6.22;;;7.30;99.90;;;;;;5079084;28;20203;-61
2021/04/18 03:50:20;;;;;;;7.10;6.40;;;7.20;99.90;;;;;;5079208;28;20249;-61
2021/04/18 03:52:48;;;;;;;8.82;4.30;;;7.40;99.90;;;;;;5078701;28;20496;-62
2021/04/18 03:55:16;;;;;;;3.40;3.10;;;7.50;99.90;;;;;;5080224;28;20203;-60
2021/04/18 03:57:42;;;;;;;6.93;5.95;;;7.50;99.90;;;;;;5079403;28;20260;-61
2021/04/18 04:00:10;;;;;;;4.80;4.30;;;7.60;99.90;;;;;;5078337;28;20494;-61
2021/04/18 04:02:37;;;;;;;5.65;4.22;;;7.60;99.90;;;;;;5079638;28;20226;-61
2021/04/18 04:05:04;;;;;;;5.10;4.70;;;7.50;99.90;;;;;;5078822;28;20244;-60
2021/04/18 04:07:31;;;;;;;5.72;3.90;;;7.60;99.90;;;;;;5078481;28;20203;-60
2021/04/18 04:09:58;;;;;;;6.70;4.57;;;7.70;99.90;;;;;;5078920;28;20216;-60
2021/04/18 04:12:29;;;;;;;6.20;5.40;;;7.70;99.90;;;;;;5078085;28;20274;-61
2021/04/18 04:15:05;;;;;;;2.55;2.13;;;7.60;99.90;;;;;;5078302;28;20206;-60
2021/04/18 04:17:31;;;;;;;5.70;5.10;;;7.70;99.90;;;;;;5078599;28;20198;-60
2021/04/18 04:19:59;;;;;;;7.35;5.45;;;7.80;99.90;;;;;;5078813;28;20206;-62
2021/04/18 04:22:25;;;;;;;13.38;4.18;;;7.80;99.90;;;;;;5076407;28;20284;-60
2021/04/18 04:24:54;;;;;;;7.10;5.07;;;7.70;99.90;;;;;;5078840;28;20273;-60
2021/04/18 04:27:21;;;;;;;4.60;4.20;;;8.00;99.90;;;;;;5076901;28;20203;-62
2021/04/18 04:29:48;;;;;;;7.10;4.40;;;8.00;99.90;;;;;;5078601;28;20207;-60
2021/04/18 04:32:15;;;;;;;4.35;3.92;;;8.10;99.90;;;;;;5076431;28;20222;-60
2021/04/18 04:34:42;;;;;;;5.78;3.83;;;8.30;99.90;;;;;;5078066;28;20238;-60
2021/04/18 04:37:08;;;;;;;5.80;5.20;;;8.50;99.90;;;;;;5075242;28;20218;-60
2021/04/18 04:39:35;;;;;;;8.43;4.65;;;8.50;99.90;;;;;;5077204;28;20206;-62
2021/04/18 04:42:02;;;;;;;4.05;3.25;;;8.40;99.90;;;;;;5077421;28;20241;-64
2021/04/18 04:44:29;;;;;;;5.22;4.65;;;8.40;99.90;;;;;;5077105;28;20260;-63
2021/04/18 04:46:57;;;;;;;6.32;5.78;;;8.60;99.90;;;;;;5078519;28;20280;-61
2021/04/18 04:49:24;;;;;;;5.80;5.20;;;8.50;99.90;;;;;;5077354;28;20579;-61
2021/04/18 04:51:51;;;;;;;6.32;5.82;;;8.70;99.90;;;;;;5069661;28;20253;-61
2021/04/18 04:54:18;;;;;;;4.50;4.10;;;8.90;99.90;;;;;;5072604;28;20206;-61
2021/04/18 04:56:44;;;;;;;4.75;4.35;;;9.30;99.90;;;;;;5077450;28;20207;-61
2021/04/18 04:59:11;;;;;;;4.60;4.03;;;9.40;99.90;;;;;;5077602;28;20218;-61
2021/04/18 05:01:37;;;;;;;7.43;6.70;;;9.60;99.90;;;;;;5077852;28;20230;-60
2021/04/18 05:04:05;;;;;;;8.38;5.95;;;9.60;99.90;;;;;;5078099;28;20257;-62
2021/04/18 05:06:31;;;;;;;6.70;5.47;;;9.60;99.90;;;;;;5077666;28;20207;-61
2021/04/18 05:08:58;;;;;;;7.32;5.07;;;9.40;99.90;;;;;;5077346;28;20500;-61
2021/04/18 05:11:24;;;;;;;6.47;4.93;;;9.30;99.90;;;;;;5077404;28;20211;-60
2021/04/18 05:13:51;;;;;;;9.02;5.93;;;9.40;99.90;;;;;;5076663;28;20248;-62
2021/04/18 05:16:17;;;;;;;6.95;6.07;;;9.50;99.90;;;;;;5077652;28;20214;-61
2021/04/18 05:18:44;;;;;;;5.53;5.05;;;9.30;99.90;;;;;;5076895;28;20214;-60
2021/04/18 05:21:12;;;;;;;7.78;5.00;;;9.00;99.90;;;;;;5077307;28;20455;-60
2021/04/18 05:23:39;;;;;;;5.30;4.80;;;9.00;99.90;;;;;;5077186;28;20230;-61
2021/04/18 05:26:06;;;;;;;5.90;5.00;;;9.00;99.90;;;;;;5077379;28;20204;-60
2021/04/18 05:28:33;;;;;;;12.45;5.63;;;9.20;99.90;;;;;;5077508;28;20249;-60
2021/04/18 05:31:00;;;;;;;5.20;4.68;;;9.10;99.90;;;;;;5077292;28;20558;-61
2021/04/18 05:33:26;;;;;;;10.60;6.47;;;9.20;99.90;;;;;;5077236;28;20211;-61
2021/04/18 05:35:53;;;;;;;11.88;6.70;;;9.20;99.90;;;;;;5074752;28;20206;-61
2021/04/18 05:38:19;;;;;;;8.73;5.75;;;9.20;99.90;;;;;;5077522;28;20206;-61
2021/04/18 05:40:46;;;;;;;14.05;10.05;;;9.30;99.90;;;;;;5077239;28;20544;-61
2021/04/18 05:43:13;;;;;;;8.85;7.00;;;9.30;99.90;;;;;;5077217;28;20214;-60
2021/04/18 05:45:40;;;;;;;12.40;10.85;;;9.20;99.90;;;;;;5077461;28;20230;-61
2021/04/18 05:48:07;;;;;;;11.27;8.48;;;8.90;99.90;;;;;;5076690;28;20207;-61
2021/04/18 05:50:34;;;;;;;12.35;6.40;;;9.10;99.90;;;;;;5077135;28;20576;-61
2021/04/18 05:53:00;;;;;;;8.65;6.10;;;9.40;99.90;;;;;;5077653;28;20245;-61
2021/04/18 05:55:27;;;;;;;9.52;7.45;;;9.40;99.90;;;;;;5077361;28;20199;-62
2021/04/18 05:57:54;;;;;;;8.43;6.20;;;9.30;99.90;;;;;;5077029;28;20403;-62
2021/04/18 06:00:21;;;;;;;8.93;7.63;;;9.10;99.90;;;;;;5077080;28;20432;-60
2021/04/18 06:02:48;;;;;;;9.25;6.93;;;9.00;99.90;;;;;;5077407;28;20238;-60
2021/04/18 06:05:16;;;;;;;8.45;7.60;;;9.00;99.90;;;;;;5075923;28;20274;-61
2021/04/18 06:07:43;;;;;;;7.13;6.30;;;9.20;99.90;;;;;;5077673;28;20212;-61
2021/04/18 06:10:10;;;;;;;6.28;5.68;;;9.20;99.90;;;;;;5075848;28;20278;-61
2021/04/18 06:12:37;;;;;;;6.15;5.55;;;9.60;99.90;;;;;;5076718;28;20431;-61
2021/04/18 06:15:05;;;;;;;7.47;5.20;;;10.00;99.90;;;;;;5076102;28;20219;-61
2021/04/18 06:17:32;;;;;;;6.50;5.93;;;9.80;99.90;;;;;;5076936;28;20207;-61
2021/04/18 06:19:58;;;;;;;9.93;6.47;;;9.60;99.90;;;;;;5077082;28;20312;-60
2021/04/18 06:22:25;;;;;;;5.65;4.97;;;9.70;99.90;;;;;;5076053;28;20456;-61
2021/04/18 06:24:51;;;;;;;7.25;6.55;;;9.30;99.90;;;;;;5076844;28;20207;-60
2021/04/18 06:27:18;;;;;;;7.78;6.32;;;9.20;99.90;;;;;;5076511;28;20449;-60
2021/04/18 06:29:44;;;;;;;7.30;6.55;;;9.40;99.90;;;;;;5076932;28;20211;-61
2021/04/18 06:32:11;;;;;;;5.40;4.93;;;9.70;99.90;;;;;;5075163;28;20408;-59
2021/04/18 06:34:42;;;;;;;5.38;4.72;;;9.90;99.90;;;;;;5077121;28;20252;-61
2021/04/18 06:37:09;;;;;;;7.72;6.75;;;9.70;99.90;;;;;;5075126;28;20218;-61
2021/04/18 06:39:35;;;;;;;7.43;6.60;;;9.90;99.90;;;;;;5090344;28;20208;-62
2021/04/18 06:42:05;;;;;;;6.30;5.10;;;9.80;99.90;;;;;;5079281;28;20571;-62
2021/04/18 06:44:32;;;;;;;8.32;7.47;;;9.70;99.90;;;;;;5094184;28;20203;-61
2021/04/18 06:47:00;;;;;;;10.07;8.35;;;9.70;99.90;;;;;;5089424;28;20207;-62
2021/04/18 06:49:28;;;;;;;6.40;5.75;;;9.80;99.90;;;;;;5091843;28;20537;-61
2021/04/18 06:51:58;;;;;;;5.70;5.20;;;9.90;99.90;;;;;;5088420;28;20270;-61
2021/04/18 06:54:25;;;;;;;4.95;4.53;;;10.10;99.90;;;;;;5083600;28;20222;-61
2021/04/18 06:56:51;;;;;;;6.60;5.78;;;10.20;99.90;;;;;;5078228;28;20491;-61
2021/04/18 06:59:18;;;;;;;10.75;6.97;;;10.40;99.90;;;;;;5079955;28;20214;-61
2021/04/18 07:01:44;;;;;;;8.38;6.40;;;10.50;99.90;;;;;;5080161;28;20207;-61
2021/04/18 07:04:13;;;;;;;8.55;6.80;;;11.00;99.90;;;;;;5079959;28;20316;-61
2021/04/18 07:06:45;;;;;;;6.13;5.53;;;11.50;99.10;;;;;;5080309;28;20371;-62
2021/04/18 07:09:12;;;;;;;6.90;6.25;;;11.70;98.30;;;;;;5080472;28;20484;-61
2021/04/18 07:12:02;;;;;;;8.68;7.13;;;11.50;98.20;;;;;;5080754;28;20208;-61
2021/04/18 07:14:35;;;;;;;11.25;5.05;;;11.20;98.90;;;;;;5080127;28;20205;-61
2021/04/18 07:17:13;;;;;;;8.27;5.65;;;11.50;98.90;;;;;;5079938;28;20208;-62
2021/04/18 07:19:42;;;;;;;7.97;7.28;;;11.50;97.80;;;;;;5080251;28;20236;-61
2021/04/18 07:22:09;;;;;;;7.03;6.32;;;12.00;96.50;;;;;;5078881;28;20220;-60
2021/04/18 07:25:01;;;;;;;6.05;5.45;;;12.10;97.50;;;;;;5081481;28;20267;-60
2021/04/18 07:27:47;;;;;;;8.77;6.90;;;11.90;96.70;;;;;;5079445;28;20208;-62
2021/04/18 07:30:22;;;;;;;6.88;5.18;;;11.90;96.30;;;;;;5079665;28;20491;-62
2021/04/18 07:33:08;;;;;;;7.68;6.45;;;12.00;96.60;;;;;;5080842;28;20634;-60
2021/04/18 07:35:40;;;;;;;5.88;5.07;;;11.90;96.90;;;;;;5074529;28;20204;-60
2021/04/18 07:38:25;;;;;;;7.57;4.80;;;11.90;96.60;;;;;;5081184;28;20202;-61
2021/04/18 07:40:54;;;;;;;8.57;7.68;;;11.90;96.60;;;;;;5078454;28;20267;-60
2021/04/18 07:43:21;;;;;;;7.65;6.85;;;12.10;96.30;;;;;;5081547;28;20238;-61
2021/04/18 07:45:49;;;;;;;13.38;7.47;;;12.00;97.50;;;;;;5079431;28;20440;-61
2021/04/18 07:48:17;;;;;;;7.25;5.65;;;12.30;96.80;;;;;;5079770;28;20205;-61
2021/04/18 07:50:46;;;;;;;8.73;6.45;;;12.70;96.00;;;;;;5079320;28;20239;-61
2021/04/18 07:53:17;;;;;;;8.52;6.75;;;13.10;95.50;;;;;;5061254;28;20229;-61
2021/04/18 07:55:45;;;;;;;8.63;7.80;;;13.00;95.10;;;;;;5082662;28;20504;-60
2021/04/18 07:58:12;;;;;;;5.47;4.95;;;12.50;95.80;;;;;;5085742;28;20254;-62
2021/04/18 08:00:39;;;;;;;6.88;6.15;;;12.80;95.90;;;;;;5079000;28;20202;-62
2021/04/18 08:03:06;;;;;;;9.45;7.43;;;12.90;95.00;;;;;;5078357;28;20538;-61
2021/04/18 08:05:34;;;;;;;10.52;7.75;;;13.00;95.70;;;;;;5080854;28;20264;-61
2021/04/18 08:08:21;;;;;;;13.50;8.57;;;13.40;95.10;;;;;;5085074;28;20277;-61
2021/04/18 08:10:49;;;;;;;8.13;5.80;;;13.90;93.80;;;;;;5079143;28;20256;-62
2021/04/18 08:13:26;;;;;;;6.35;5.70;;;13.30;94.30;;;;;;5072199;28;20232;-61
2021/04/18 08:15:53;;;;;;;5.72;5.20;;;13.30;95.00;;;;;;5079550;28;20209;-61
2021/04/18 08:18:43;;;;;;;10.52;4.47;;;13.30;93.40;;;;;;5078640;28;20213;-61
2021/04/18 08:21:39;;;;;;;6.18;5.25;;;13.30;93.40;;;;;;5074232;28;20210;-61
2021/04/18 08:24:28;;;;;;;4.85;3.55;;;12.80;94.50;;;;;;5078407;28;20528;-62
2021/04/18 08:27:00;;;;;;;6.78;4.72;;;12.50;94.90;;;;;;5061590;28;20206;-61
2021/04/18 08:29:27;;;;;;;6.47;5.88;;;12.10;95.50;;;;;;5077839;28;20206;-60
2021/04/18 08:31:58;;;;;;;6.20;4.47;;;12.10;95.10;;;;;;5078748;28;20209;-61
2021/04/18 08:34:30;;;;;;;12.23;10.77;;;11.70;95.60;;;;;;5078181;28;20276;-63
2021/04/18 08:36:59;;;;;;;7.78;6.43;;;12.10;95.90;;;;;;5076645;28;20262;-61
2021/04/18 08:39:40;;;;;;;6.78;6.13;;;12.00;96.00;;;;;;5066737;28;20280;-61
2021/04/18 08:42:08;;;;;;;10.15;7.72;;;12.10;95.40;;;;;;5077641;28;20205;-60
2021/04/18 08:44:35;;;;;;;7.30;4.35;;;12.20;95.40;;;;;;5076790;28;20213;-61
2021/04/18 08:47:11;;;;;;;5.72;4.03;;;12.40;95.50;;;;;;5078644;28;20277;-62
2021/04/18 08:49:42;;;;;;;5.15;4.75;;;12.70;94.30;;;;;;5074871;28;20335;-62
2021/04/18 08:52:22;;;;;;;5.72;5.20;;;12.00;95.60;;;;;;5078008;28;20206;-62
2021/04/18 08:54:51;;;;;;;6.28;5.70;;;11.90;96.20;;;;;;5078304;28;20209;-59
2021/04/18 08:57:22;;;;;;;6.63;5.35;;;12.00;95.80;;;;;;5078490;28;20217;-62
2021/04/18 08:59:56;;;;;;;11.73;8.25;;;12.60;95.20;;;;;;5078310;28;20209;-59
2021/04/18 09:02:24;;;;;;;5.55;3.80;;;12.60;94.20;;;;;;5076779;28;20220;-61
2021/04/18 09:04:54;;;;;;;9.25;6.10;;;12.50;94.40;;;;;;5077669;28;20562;-62
2021/04/18 09:07:27;;;;;;;5.55;4.95;;;12.40;94.60;;;;;;5077176;28;20275;-61
2021/04/18 09:10:03;;;;;;;7.53;6.72;;;12.30;94.90;;;;;;5078331;28;20422;-62
2021/04/18 09:12:30;;;;;;;8.15;5.65;;;12.80;94.90;;;;;;5073689;28;20617;-61
2021/04/18 09:14:57;;;;;;;7.13;5.20;;;13.00;94.90;;;;;;5079238;28;20210;-61
2021/04/18 09:17:26;;;;;;;7.93;5.28;;;13.20;93.40;;;;;;5077939;28;20202;-61
2021/04/18 09:20:10;;;;;;;6.60;5.80;;;12.90;93.10;;;;;;5063886;28;20216;-61
2021/04/18 09:22:39;;;;;;;8.35;7.10;;;12.50;94.20;;;;;;5075455;28;20245;-61
2021/04/18 09:25:13;;;;;;;9.50;7.18;;;12.30;94.90;;;;;;5081256;28;20202;-63
2021/04/18 09:27:52;;;;;;;5.40;4.90;;;12.50;94.90;;;;;;5074529;28;20212;-62
2021/04/18 09:30:21;;;;;;;6.15;5.57;;;12.00;95.10;;;;;;5077468;28;20205;-61
2021/04/18 09:32:51;;;;;;;3.80;3.47;;;11.80;95.20;;;;;;5072258;28;20285;-61
2021/04/18 09:35:20;;;;;;;7.70;6.93;;;11.70;95.00;;;;;;5085052;28;20296;-62
2021/04/18 09:37:53;;;;;;;7.10;5.40;;;11.80;95.20;;;;;;5077356;28;20234;-61
2021/04/18 09:40:21;;;;;;;8.38;5.65;;;11.90;95.00;;;;;;5078677;28;20237;-62
2021/04/18 09:42:50;;;;;;;11.35;6.85;;;12.50;94.20;;;;;;5072198;28;20233;-62
2021/04/18 09:45:19;;;;;;;7.18;5.55;;;13.20;93.50;;;;;;5085089;28;20591;-61
2021/04/18 09:48:09;;;;;;;8.15;5.05;;;13.80;93.00;;;;;;5073888;28;20206;-61
2021/04/18 09:50:36;;;;;;;6.85;6.15;;;13.50;92.10;;;;;;5066435;28;20534;-61
2021/04/18 09:53:22;;;;;;;8.52;5.97;;;12.90;93.20;;;;;;5077711;28;20249;-62
2021/04/18 09:56:08;;;;;;;9.13;6.90;;;12.60;93.70;;;;;;5070204;28;20217;-61
2021/04/18 09:58:40;;;;;;;11.40;8.32;;;12.50;94.70;;;;;;5089982;28;20450;-61
2021/04/18 10:01:33;;;;;;;8.43;5.15;;;12.50;94.00;;;;;;5077146;28;20213;-62
2021/04/18 10:04:00;;;;;;;7.88;5.32;;;12.60;93.90;;;;;;5089312;28;20236;-61
2021/04/18 10:06:46;;;;;;;6.57;5.35;;;12.60;93.50;;;;;;5077392;28;20207;-62
2021/04/18 10:09:13;;;;;;;10.43;6.55;;;12.50;94.70;;;;;;5064663;28;20201;-65
2021/04/18 10:11:39;;;;;;;8.18;6.28;;;12.40;94.40;;;;;;5089950;28;20213;-61
2021/04/18 10:14:19;;;;;;;7.95;5.80;;;12.50;94.90;;;;;;5092873;28;20206;-61
2021/04/18 10:16:45;;;;;;;9.77;5.70;;;12.60;93.70;;;;;;5094238;28;20564;-62
2021/04/18 10:19:15;;;;;;;8.25;6.38;;;12.40;94.10;;;;;;5093969;28;20206;-61
2021/04/18 10:22:05;;;;;;;6.60;5.85;;;12.60;94.60;;;;;;5081076;28;20278;-60
2021/04/18 10:24:33;;;;;;;7.20;5.03;;;13.40;94.30;;;;;;5068566;28;20417;-60
2021/04/18 10:27:01;;;;;;;5.00;4.00;;;13.80;93.20;;;;;;5080963;28;20207;-60
2021/04/18 10:29:29;;;;;;;9.98;5.72;;;14.00;92.10;;;;;;5087329;28;20263;-61
2021/04/18 10:31:55;;;;;;;3.97;3.67;;;13.90;92.40;;;;;;5088265;28;20362;-61
2021/04/18 10:34:23;;;;;;;7.50;3.58;;;13.60;92.60;;;;;;5097168;28;20213;-61
2021/04/18 10:36:50;;;;;;;4.75;4.28;;;12.90;92.80;;;;;;5083833;28;20210;-61
2021/04/18 10:39:17;;;;;;;5.32;3.90;;;13.00;93.40;;;;;;5080295;28;20390;-61
2021/04/18 10:41:45;;;;;;;10.90;5.53;;;12.80;93.30;;;;;;5086983;28;20238;-61
2021/04/18 10:44:15;;;;;;;4.57;3.83;;;12.30;94.10;;;;;;5084400;28;20427;-61
2021/04/18 10:46:49;;;;;;;5.28;4.50;;;12.20;94.60;;;;;;5085685;28;20229;-61
2021/04/18 10:49:16;;;;;;;11.07;5.95;;;12.50;94.40;;;;;;5074564;28;20206;-61
2021/04/18 10:51:42;;;;;;;4.85;4.15;;;12.90;93.70;;;;;;5081782;28;20400;-61
2021/04/18 10:54:09;;;;;;;6.38;4.57;;;13.10;93.20;;;;;;5080352;28;20206;-61
2021/04/18 10:56:37;;;;;;;6.05;4.65;;;13.20;92.50;;;;;;5080211;28;20218;-62
2021/04/18 10:59:08;;;;;;;6.63;3.67;;;13.20;92.20;;;;;;5081251;28;20492;-61
2021/04/18 11:01:36;;;;;;;4.85;4.20;;;13.10;92.70;;;;;;5080784;28;20214;-61
2021/04/18 11:04:03;;;;;;;6.45;5.45;;;12.90;92.60;;;;;;5081645;28;20565;-61
2021/04/18 11:06:30;;;;;;;8.52;6.35;;;12.70;94.00;;;;;;5081484;28;20207;-61
2021/04/18 11:08:56;;;;;;;7.50;4.30;;;13.00;92.90;;;;;;5087513;28;20194;-61
2021/04/18 11:11:24;;;;;;;4.32;3.92;;;13.70;92.00;;;;;;5102126;28;20248;-60
2021/04/18 11:13:51;;;;;;;6.35;3.70;;;14.00;91.40;;;;;;5087092;28;20230;-61
2021/04/18 11:16:18;;;;;;;4.70;4.30;;;14.10;91.30;;;;;;5098305;28;20198;-61
2021/04/18 11:18:46;;;;;;;4.45;4.05;;;14.20;90.20;;;;;;5095765;28;20252;-61
2021/04/18 11:21:13;;;;;;;4.90;4.50;;;14.30;90.70;;;;;;5092046;28;20199;-60
2021/04/18 11:23:40;;;;;;;10.10;5.88;;;14.10;90.30;;;;;;5092199;28;20609;-65
2021/04/18 11:26:07;;;;;;;7.15;5.05;;;13.70;91.60;;;;;;5080051;28;20210;-62
2021/04/18 11:28:34;;;;;;;8.07;5.70;;;13.80;91.10;;;;;;5082436;28;20699;-61
2021/04/18 11:31:01;;;;;;;6.10;4.78;;;13.60;91.50;;;;;;5083090;28;20202;-62
2021/04/18 11:33:28;;;;;;;7.85;5.85;;;13.70;91.20;;;;;;5084449;28;20278;-61
2021/04/18 11:35:55;;;;;;;7.82;7.05;;;13.30;92.00;;;;;;5084043;28;21524;-62
2021/04/18 11:38:21;;;;;;;4.18;3.28;;;13.20;92.50;;;;;;5085605;28;20419;-61
2021/04/18 11:40:48;;;;;;;7.03;5.15;;;13.10;92.40;;;;;;5081459;28;20272;-61
2021/04/18 11:43:15;;;;;;;5.75;4.57;;;13.20;92.80;;;;;;5084999;28;20441;-61
2021/04/18 11:45:42;;;;;;;6.97;4.78;;;13.20;92.20;;;;;;5086292;28;20788;-61
2021/04/18 11:48:09;;;;;;;4.15;3.75;;;12.80;92.00;;;;;;5084435;28;20209;-61
2021/04/18 11:50:36;;;;;;;7.28;6.10;;;12.70;93.20;;;;;;5084225;28;20238;-62
2021/04/18 11:53:03;;;;;;;6.47;3.75;;;12.60;93.30;;;;;;5080803;28;20206;-61
2021/04/18 11:55:30;;;;;;;9.27;6.95;;;12.90;93.70;;;;;;5080647;28;20207;-61
2021/04/18 11:57:56;;;;;;;4.15;3.53;;;13.40;92.40;;;;;;5081100;28;20256;-61
2021/04/18 12:00:23;;;;;;;8.75;5.00;;;13.70;92.10;;;;;;5080340;28;20446;-61
2021/04/18 12:02:50;;;;;;;6.90;4.88;;;14.30;91.40;;;;;;5092012;28;20263;-61
2021/04/18 12:05:18;;;;;;;6.78;4.85;;;14.80;86.90;;;;;;5101009;28;20202;-61
2021/04/18 12:07:45;;;;;;;5.63;4.43;;;15.00;87.90;;;;;;5081759;28;20265;-62
2021/04/18 12:10:13;;;;;;;6.63;5.45;;;15.20;85.20;;;;;;5090608;28;20206;-62
2021/04/18 12:12:40;;;;;;;5.25;3.90;;;15.30;84.10;;;;;;5088869;28;20220;-63
2021/04/18 12:15:13;;;;;;;6.75;4.47;;;16.00;84.50;;;;;;5085344;28;20198;-61
2021/04/18 12:17:40;;;;;;;5.22;4.65;;;16.50;81.60;;;;;;5075186;28;20278;-62
2021/04/18 12:20:10;;;;;;;6.28;5.60;;;16.20;81.70;;;;;;5099052;28;20276;-61
2021/04/18 12:22:37;;;;;;;5.32;4.47;;;16.50;81.90;;;;;;5094114;28;20207;-62
2021/04/18 12:25:08;;;;;;;8.07;6.05;;;16.30;81.60;;;;;;5080053;28;20253;-62
2021/04/18 12:27:35;;;;;;;6.63;5.93;;;15.50;80.90;;;;;;5093657;28;20420;-61
2021/04/18 12:30:04;;;;;;;6.68;5.28;;;15.10;84.30;;;;;;5085984;28;20230;-62
2021/04/18 12:32:30;;;;;;;5.65;5.10;;;15.00;84.70;;;;;;5087438;28;20427;-62
2021/04/18 12:34:59;;;;;;;4.95;4.40;;;14.90;85.20;;;;;;5090415;28;20449;-61
2021/04/18 12:37:25;;;;;;;8.38;5.97;;;14.30;87.50;;;;;;5090149;28;20213;-62
2021/04/18 12:39:52;;;;;;;5.03;3.75;;;14.00;90.50;;;;;;5089135;28;20513;-63
2021/04/18 12:42:18;;;;;;;4.68;4.22;;;13.90;89.30;;;;;;5093000;28;20377;-63
2021/04/18 12:44:45;;;;;;;4.00;2.90;;;13.40;90.80;;;;;;5088105;28;20592;-62
2021/04/18 12:47:14;;;;;;;4.90;4.38;;;12.70;91.40;;;;;;5079379;28;20206;-62
2021/04/18 12:49:42;;;;;;;5.43;3.95;;;12.30;92.10;;;;;;5087228;28;20238;-63
2021/04/18 12:52:10;;;;;;;6.38;4.57;;;12.20;93.00;;;;;;5079300;28;20208;-62
2021/04/18 12:54:38;;;;;;;13.95;5.60;;;12.10;92.80;;;;;;5079933;28;20287;-62
2021/04/18 12:57:06;;;;;;;4.88;3.83;;;11.90;93.40;;;;;;5077304;28;20229;-62
2021/04/18 12:59:33;;;;;;;6.47;4.25;;;11.80;94.30;;;;;;5071892;28;20271;-62